To NAV CANADA Home Page Login to a new session Search on AWWS site Feedback and Comments Disclaimer Vers la page française équivalente Tips FAQ What's new on the site To the Forecasts and Observations / NOTAM section To "File a Flight Plan" website Publications and other links Update of the User's profile FIC Telephone Numbers My Weather Data Folder Route Weather Data Regional Weather Data Local Weather Data To the Forecasts and Observations / NOTAM section
Request Generated 08/03/2015 at 13:04:37 UTC . Weather information available at that time is displayed.

METAR/TAF

FORT ST. JOHN/BC    

METAR CYXJ 031300Z 32005KT 15SM SCT080 BKN220 11/09 A2988 RMK AC3CI2
SLP125 DENSITY ALT 2300FT=
METAR CYXJ 031200Z 33004KT 15SM SCT070 BKN220 12/10 A2988 RMK AC4CI3
SLP122 DENSITY ALT 2500FT=
METAR CYXJ 031100Z 35005KT 15SM BKN090 BKN220 14/10 A2988 RMK AC5CI1
SLP123 DENSITY ALT 2700FT=

TAF CYXJ 031238Z 0313/0401 34006KT P6SM SCT070 TEMPO 0313/0319 BKN070
FM031900 33010KT P6SM BKN050 BKN100 TEMPO 0319/0401 P6SM -SHRA
FEW020 OVC050 PROB30 0321/0401 VRB20G35KT 3SM TSRA BKN020
OVC050CB
RMK NXT FCST BY 031900Z=
Your time UTC time
Weather data provided by Environment Canada and NAV CANADA